Time;durP1;ratioP1;P1;durP2;ratioP2;P2;SDS_P1;SDS_P2;PMS_P1;PMS_P2;Temp;Humidity;BMP_temperature;BMP_pressure;BME280_temperature;BME280_humidity;BME280_pressure;Samples;Min_cycle;Max_cycle;Signal;HPM_P1;HPM_P2
2022/08/08 00:00:42;;;;;;;5.00;2.87;;;18.90;41.40;;;;;;5012229;28;20469;-85
2022/08/08 00:03:39;;;;;;;4.27;3.00;;;18.90;42.00;;;;;;4995057;28;20964;-84
2022/08/08 00:06:16;;;;;;;4.37;2.97;;;18.90;43.20;;;;;;4996048;28;20441;-84
2022/08/08 00:08:50;;;;;;;4.50;2.90;;;18.90;45.60;;;;;;5007286;28;20451;-84
2022/08/08 00:11:51;;;;;;;3.50;3.20;;;18.80;46.30;;;;;;5009451;28;20445;-84
2022/08/08 00:14:52;;;;;;;4.10;3.10;;;18.80;47.20;;;;;;5013304;28;20458;-84
2022/08/08 00:17:50;;;;;;;3.80;2.90;;;18.70;47.80;;;;;;5002253;28;20448;-84
2022/08/08 00:20:25;;;;;;;4.77;3.30;;;18.70;49.70;;;;;;5013200;28;20533;-84
2022/08/08 00:22:56;;;;;;;5.13;3.00;;;18.70;50.90;;;;;;4993685;28;20436;-85
2022/08/08 00:25:35;;;;;;;3.80;3.23;;;18.60;50.60;;;;;;5011085;28;20449;-84
2022/08/08 00:28:05;;;;;;;4.47;3.50;;;18.60;51.60;;;;;;5012662;28;20451;-84
2022/08/08 00:30:35;;;;;;;3.80;3.40;;;18.60;53.20;;;;;;5014820;28;20594;-85
2022/08/08 00:33:06;;;;;;;4.40;3.60;;;18.50;53.60;;;;;;4997283;28;20438;-84
2022/08/08 00:36:05;;;;;;;5.80;3.23;;;18.50;55.20;;;;;;5004638;28;20440;-84
2022/08/08 00:38:49;;;;;;;8.87;3.27;;;18.50;55.90;;;;;;5013860;28;20453;-84
2022/08/08 00:41:42;;;;;;;4.00;3.23;;;18.50;57.10;;;;;;4995983;28;20522;-84
2022/08/08 00:44:10;;;;;;;4.37;3.43;;;18.40;57.90;;;;;;4995316;28;20455;-85
2022/08/08 00:47:02;;;;;;;5.37;3.30;;;18.40;58.80;;;;;;5009166;28;20529;-83
2022/08/08 00:50:16;;;;;;;9.90;3.30;;;18.40;60.30;;;;;;5012631;28;20444;-84
2022/08/08 00:53:09;;;;;;;4.10;3.10;;;18.30;61.60;;;;;;4935039;28;20447;-84
2022/08/08 00:56:00;;;;;;;4.90;3.80;;;18.30;63.30;;;;;;5011512;28;20503;-84
2022/08/08 00:58:59;;;;;;;5.80;3.50;;;18.30;64.60;;;;;;5011485;28;20465;-84
2022/08/08 01:01:25;;;;;;;5.80;3.20;;;18.20;67.70;;;;;;5011157;28;20520;-84
2022/08/08 01:03:59;;;;;;;8.60;4.10;;;18.20;69.60;;;;;;5011441;28;20430;-84
2022/08/08 01:06:54;;;;;;;5.87;3.30;;;18.10;90.30;;;;;;5010053;28;20175;-84
2022/08/08 01:09:26;;;;;;;5.10;3.67;;;18.10;74.90;;;;;;4993977;28;20483;-84
2022/08/08 01:12:21;;;;;;;4.50;3.50;;;18.00;76.80;;;;;;5014948;28;20504;-84
2022/08/08 01:15:01;;;;;;;5.00;3.90;;;18.00;80.00;;;;;;5010275;28;20948;-84
2022/08/08 01:17:38;;;;;;;4.73;3.83;;;17.90;82.90;;;;;;5005583;28;20451;-84
2022/08/08 01:20:24;;;;;;;4.37;3.67;;;17.90;85.10;;;;;;4991902;28;20982;-84
2022/08/08 01:23:11;;;;;;;6.63;3.90;;;17.90;89.50;;;;;;5011338;28;20446;-84
2022/08/08 01:26:21;;;;;;;5.77;4.50;;;17.90;91.30;;;;;;5008821;28;20454;-84
2022/08/08 01:29:08;;;;;;;5.73;3.60;;;17.80;92.60;;;;;;4948017;28;20452;-84
2022/08/08 01:31:55;;;;;;;4.57;3.90;;;17.80;95.20;;;;;;4949072;28;20535;-84
2022/08/08 01:34:39;;;;;;;5.50;4.23;;;17.70;97.20;;;;;;4978468;28;20434;-84
2022/08/08 01:37:08;;;;;;;8.50;3.80;;;17.70;99.70;;;;;;4994125;28;20969;-84
2022/08/08 01:40:01;;;;;;;8.23;4.40;;;17.60;99.90;;;;;;4990977;28;20458;-84
2022/08/08 01:42:45;;;;;;;4.80;4.00;;;17.60;99.90;;;;;;4990214;28;20439;-84
2022/08/08 01:45:44;;;;;;;7.30;4.00;;;17.50;99.90;;;;;;5011859;28;20433;-84
2022/08/08 01:48:18;;;;;;;5.67;5.10;;;17.50;99.90;;;;;;5011168;28;21003;-84
2022/08/08 01:51:04;;;;;;;6.73;4.00;;;17.50;99.90;;;;;;5011297;28;20442;-84
2022/08/08 01:53:45;;;;;;;4.30;3.53;;;17.40;99.90;;;;;;4990054;28;20560;-84
2022/08/08 01:57:08;;;;;;;4.83;4.20;;;17.40;99.90;;;;;;5011918;28;20444;-84
2022/08/08 01:59:42;;;;;;;5.83;4.87;;;17.40;99.90;;;;;;4943387;28;20512;-84
2022/08/08 02:02:51;;;;;;;7.87;4.70;;;17.30;99.90;;;;;;5010334;28;20804;-84
2022/08/08 02:05:48;;;;;;;8.23;5.40;;;17.30;99.90;;;;;;5008669;28;21013;-84
2022/08/08 02:08:27;;;;;;;5.63;4.83;;;17.20;99.90;;;;;;5012391;28;20827;-84
2022/08/08 02:11:11;;;;;;;5.80;4.60;;;17.20;99.90;;;;;;4994360;28;20438;-84
2022/08/08 02:13:55;;;;;;;6.30;4.93;;;17.20;99.90;;;;;;4993632;28;21088;-83
2022/08/08 02:16:43;;;;;;;8.67;5.43;;;17.10;99.90;;;;;;4990129;28;20457;-84
2022/08/08 02:19:24;;;;;;;9.67;5.17;;;17.10;99.90;;;;;;5009620;28;20456;-85
2022/08/08 02:22:32;;;;;;;7.23;5.33;;;17.10;99.90;;;;;;5008577;28;20438;-83
2022/08/08 02:25:07;;;;;;;6.53;5.33;;;17.00;99.90;;;;;;5008650;28;21033;-84
2022/08/08 02:27:57;;;;;;;6.17;5.23;;;17.00;99.90;;;;;;4992706;28;20492;-84
2022/08/08 02:30:48;;;;;;;7.77;5.17;;;17.00;99.90;;;;;;5009349;28;20436;-84
2022/08/08 02:33:57;;;;;;;5.63;4.70;;;16.90;99.90;;;;;;5010690;28;20440;-84
2022/08/08 02:36:44;;;;;;;7.10;5.60;;;16.90;99.90;;;;;;5007406;28;21098;-84
2022/08/08 02:39:48;;;;;;;7.40;5.97;;;16.90;99.90;;;;;;5009574;28;20551;-85
2022/08/08 02:42:20;;;;;;;10.40;6.07;;;16.90;99.90;;;;;;4993417;28;20518;-84
2022/08/08 02:45:13;;;;;;;6.50;5.60;;;16.90;99.90;;;;;;5009680;28;20958;-85
2022/08/08 02:48:03;;;;;;;7.97;6.37;;;16.80;99.90;;;;;;4990888;28;20549;-84
2022/08/08 02:50:41;;;;;;;10.43;6.87;;;16.80;99.90;;;;;;5004687;28;20526;-83
2022/08/08 02:53:40;;;;;;;7.93;6.53;;;16.70;99.90;;;;;;5011157;28;20448;-84
2022/08/08 02:56:51;;;;;;;8.13;5.90;;;16.70;99.90;;;;;;5009558;28;20445;-84
2022/08/08 02:59:39;;;;;;;9.07;6.13;;;16.70;99.90;;;;;;5008468;28;20838;-84
2022/08/08 03:02:32;;;;;;;7.80;6.57;;;16.60;99.90;;;;;;4987978;28;20979;-85
2022/08/08 03:05:42;;;;;;;7.60;6.70;;;16.60;99.90;;;;;;5007425;28;20658;-84
2022/08/08 03:08:25;;;;;;;10.37;6.03;;;16.60;99.90;;;;;;5011399;28;20485;-84
2022/08/08 03:11:27;;;;;;;7.53;6.27;;;16.50;99.90;;;;;;5007866;28;20506;-84
2022/08/08 03:14:20;;;;;;;9.73;5.80;;;16.40;99.90;;;;;;5009072;28;20445;-84
2022/08/08 03:17:07;;;;;;;8.77;6.13;;;16.50;99.90;;;;;;4991201;28;20444;-84
2022/08/08 03:22:27;;;;;;;10.27;6.47;;;16.40;99.90;;;;;;4991787;28;20441;-83
2022/08/08 03:24:53;;;;;;;8.57;6.10;;;16.40;99.90;;;;;;5009909;28;20547;-84
2022/08/08 03:27:24;;;;;;;8.03;6.47;;;16.40;99.90;;;;;;5009874;28;20224;-84
2022/08/08 03:29:56;;;;;;;10.00;6.40;;;16.40;99.90;;;;;;4989882;28;20444;-83
2022/08/08 03:35:07;;;;;;;7.47;6.43;;;16.30;1.00;;;;;;5012152;28;20499;-84
2022/08/08 03:37:36;;;;;;;10.20;7.70;;;16.30;1.00;;;;;;4989958;28;20468;-85
2022/08/08 03:40:04;;;;;;;9.10;7.00;;;16.30;1.00;;;;;;5006702;28;20518;-84
2022/08/08 03:42:30;;;;;;;7.83;6.50;;;16.30;1.00;;;;;;5010825;28;20448;-84
2022/08/08 03:44:56;;;;;;;8.73;6.70;;;16.30;1.00;;;;;;5007986;28;20443;-84
2022/08/08 03:47:22;;;;;;;8.90;6.80;;;16.30;1.00;;;;;;5009682;28;20471;-84
2022/08/08 03:49:48;;;;;;;10.87;7.50;;;16.30;1.00;;;;;;5009151;28;20674;-84
2022/08/08 03:52:14;;;;;;;9.97;6.20;;;16.20;1.00;;;;;;5007934;28;20182;-84
2022/08/08 03:54:44;;;;;;;9.20;6.60;;;16.20;1.00;;;;;;5005726;28;20561;-85
2022/08/08 03:57:14;;;;;;;10.50;7.13;;;16.20;1.00;;;;;;4988042;28;20988;-84
2022/08/08 03:59:40;;;;;;;9.33;7.33;;;16.20;1.00;;;;;;5007174;28;20473;-84
2022/08/08 04:02:18;;;;;;;14.73;6.87;;;16.20;1.00;;;;;;4992427;28;20449;-84
2022/08/08 04:04:45;;;;;;;10.87;8.07;;;16.20;1.00;;;;;;5011193;28;20186;-83
2022/08/08 04:07:11;;;;;;;13.13;7.40;;;16.20;1.00;;;;;;5008933;28;20464;-84
2022/08/08 04:09:38;;;;;;;12.57;6.60;;;16.20;1.00;;;;;;5006253;28;20438;-84
2022/08/08 04:12:04;;;;;;;8.57;6.47;;;16.20;1.00;;;;;;4991960;28;20475;-85
2022/08/08 04:14:29;;;;;;;8.80;7.27;;;16.20;1.00;;;;;;4993284;28;20480;-85
2022/08/08 04:16:55;;;;;;;8.27;7.47;;;16.20;1.00;;;;;;4987412;28;20441;-84
2022/08/08 04:19:21;;;;;;;10.73;7.77;;;16.20;1.00;;;;;;5005121;28;20293;-85
2022/08/08 04:21:46;;;;;;;9.80;7.27;;;16.20;1.00;;;;;;4995783;28;20200;-83
2022/08/08 04:24:12;;;;;;;11.10;7.13;;;16.20;1.00;;;;;;5009340;28;20574;-84
2022/08/08 04:26:38;;;;;;;12.77;7.90;;;16.20;1.00;;;;;;4994148;28;20184;-83
2022/08/08 04:29:03;;;;;;;9.27;7.57;;;16.20;1.00;;;;;;5005401;28;20216;-84
2022/08/08 04:31:29;;;;;;;10.80;7.97;;;16.20;23.90;;;;;;4992059;28;20208;-84
2022/08/08 04:33:54;;;;;;;12.57;8.37;;;16.30;28.30;;;;;;5011970;28;20204;-84
2022/08/08 04:36:20;;;;;;;8.67;7.37;;;16.30;36.80;;;;;;5007996;28;20659;-85
2022/08/08 04:38:46;;;;;;;9.20;7.30;;;16.30;38.80;;;;;;4995656;28;20246;-84
2022/08/08 04:41:11;;;;;;;10.70;8.07;;;16.40;36.50;;;;;;5013028;28;20201;-85
2022/08/08 04:43:37;;;;;;;15.30;7.67;;;16.40;30.00;;;;;;5012570;28;20744;-84
2022/08/08 04:46:04;;;;;;;11.07;8.30;;;16.50;26.50;;;;;;5010096;28;20186;-84
2022/08/08 04:48:30;;;;;;;9.80;7.57;;;16.50;26.40;;;;;;5033325;22;20241;-86
2022/08/08 04:50:55;;;;;;;10.17;8.07;;;16.50;26.40;;;;;;4991353;28;20438;-85
2022/08/08 04:53:23;;;;;;;10.23;7.53;;;16.50;45.00;;;;;;4991760;28;20187;-85
2022/08/08 04:55:49;;;;;;;9.63;8.10;;;16.60;49.30;;;;;;5004965;28;20195;-85
2022/08/08 04:58:16;;;;;;;12.30;8.80;;;16.60;42.30;;;;;;4994894;28;20456;-86
2022/08/08 05:00:41;;;;;;;11.87;7.53;;;16.70;31.90;;;;;;4989287;28;20218;-84
2022/08/08 05:03:07;;;;;;;10.17;7.93;;;16.80;35.80;;;;;;4992256;28;20453;-85
2022/08/08 05:05:33;;;;;;;10.03;8.30;;;16.90;21.50;;;;;;4988465;28;20216;-85
2022/08/08 05:07:58;;;;;;;10.67;8.00;;;16.90;5.80;;;;;;4988931;28;20929;-85
2022/08/08 05:10:33;;;;;;;12.47;7.80;;;17.00;1.00;;;;;;4991557;28;20203;-88
2022/08/08 05:12:58;;;;;;;12.63;8.63;;;17.10;1.00;;;;;;4994183;28;21338;-87
2022/08/08 05:15:26;;;;;;;13.80;8.10;;;17.20;1.00;;;;;;4994645;28;20506;-87
2022/08/08 05:17:52;;;;;;;10.53;7.90;;;17.30;1.00;;;;;;4991004;28;20208;-89
2022/08/08 05:20:20;;;;;;;10.90;8.10;;;17.40;1.00;;;;;;5000032;28;20460;-88
2022/08/08 05:22:47;;;;;;;10.53;8.20;;;17.50;1.00;;;;;;4987707;28;20290;-88
2022/08/08 05:25:14;;;;;;;10.60;9.07;;;17.60;1.00;;;;;;4987055;28;20486;-88
2022/08/08 05:27:39;;;;;;;14.90;9.60;;;17.70;1.00;;;;;;4983073;28;20517;-89
2022/08/08 05:30:12;;;;;;;8.73;7.83;;;17.90;1.00;;;;;;5004138;28;20485;-88
2022/08/08 05:32:44;;;;;;;12.37;8.90;;;18.00;1.00;;;;;;4984602;28;20190;-88
2022/08/08 05:35:13;;;;;;;10.20;8.70;;;18.20;1.00;;;;;;4990841;28;20972;-88
2022/08/08 05:37:43;;;;;;;12.97;8.53;;;18.40;1.00;;;;;;5005087;28;20833;-88
2022/08/08 05:40:10;;;;;;;10.30;8.77;;;18.90;1.00;;;;;;4990746;28;20469;-89
2022/08/08 05:42:44;;;;;;;10.10;7.90;;;20.30;1.00;;;;;;5005306;28;20443;-88
2022/08/08 05:45:14;;;;;;;9.27;7.87;;;23.70;99.90;;;;;;4985526;28;20438;-89
2022/08/08 05:47:41;;;;;;;9.77;7.57;;;27.10;99.90;;;;;;4977753;28;20474;-88
2022/08/08 05:50:07;;;;;;;9.03;7.33;;;30.20;99.90;;;;;;4977610;28;20444;-89
2022/08/08 05:52:34;;;;;;;10.37;6.90;;;32.00;99.90;;;;;;4980117;28;20442;-89
2022/08/08 05:55:03;;;;;;;7.50;6.70;;;33.10;99.90;;;;;;4978099;28;20450;-89
2022/08/08 05:57:38;;;;;;;12.50;7.47;;;34.20;99.90;;;;;;4982603;28;20538;-88
2022/08/08 06:00:11;;;;;;;11.83;8.20;;;34.30;99.90;;;;;;4997951;28;20478;-89
2022/08/08 06:05:28;;;;;;;9.93;7.73;;;32.80;95.30;;;;;;4990066;28;20617;-89
2022/08/08 06:07:56;;;;;;;9.90;7.23;;;33.10;93.10;;;;;;4975799;28;20485;-89
2022/08/08 06:10:22;;;;;;;9.70;6.73;;;33.90;91.60;;;;;;4979204;28;20447;-89
2022/08/08 06:12:51;;;;;;;8.60;7.30;;;35.20;90.10;;;;;;4978589;28;20443;-90
2022/08/08 06:15:17;;;;;;;8.47;6.60;;;36.60;85.70;;;;;;4974543;28;20793;-89
2022/08/08 06:17:43;;;;;;;11.87;6.90;;;38.30;77.80;;;;;;4976881;28;20473;-88
2022/08/08 06:20:11;;;;;;;10.33;7.50;;;39.40;69.40;;;;;;4978078;28;20222;-90
2022/08/08 06:22:39;;;;;;;8.77;6.93;;;40.60;62.20;;;;;;4972096;28;20553;-90
2022/08/08 06:25:11;;;;;;;9.73;6.07;;;43.10;58.90;;;;;;4975958;28;20526;-91
2022/08/08 06:27:59;;;;;;;7.60;6.90;;;45.50;54.90;;;;;;4974552;28;20474;-89
2022/08/08 06:30:25;;;;;;;9.30;5.90;;;45.20;46.20;;;;;;4972143;28;20467;-86
2022/08/08 06:32:55;;;;;;;10.53;5.93;;;45.70;40.80;;;;;;4980003;28;20443;-86
2022/08/08 06:35:21;;;;;;;7.50;5.53;;;47.40;38.50;;;;;;4984386;28;20433;-88
2022/08/08 06:37:53;;;;;;;7.43;5.83;;;48.20;32.30;;;;;;4978955;28;20450;-88
2022/08/08 06:40:21;;;;;;;6.57;5.80;;;48.40;27.60;;;;;;4974010;28;20465;-88
2022/08/08 06:42:55;;;;;;;8.00;5.83;;;49.00;24.30;;;;;;4978896;28;20449;-87
2022/08/08 06:45:24;;;;;;;5.87;5.27;;;50.30;21.80;;;;;;4991632;28;20430;-88
2022/08/08 06:47:51;;;;;;;6.67;5.37;;;51.50;19.80;;;;;;4978046;28;20553;-87
2022/08/08 06:50:17;;;;;;;6.25;5.65;;;53.10;17.70;;;;;;4968803;28;20204;-88
2022/08/08 06:52:43;;;;;;;7.15;5.20;;;54.60;15.60;;;;;;4977194;28;20186;-88
2022/08/08 06:55:15;;;;;;;12.55;6.05;;;54.80;12.30;;;;;;4965231;28;20229;-88
2022/08/08 06:57:40;;;;;;;15.30;6.17;;;53.70;7.00;;;;;;4974611;28;20209;-88
2022/08/08 07:00:07;;;;;;;6.03;5.47;;;53.00;4.10;;;;;;4975524;28;20183;-88
2022/08/08 07:02:33;;;;;;;8.52;5.90;;;53.10;1.90;;;;;;4995400;28;20190;-88
2022/08/08 07:05:07;;;;;;;15.85;7.30;;;53.60;1.00;;;;;;4978114;28;20286;-88
2022/08/08 07:07:36;;;;;;;8.57;5.90;;;53.40;1.00;;;;;;4991132;28;20211;-85
2022/08/08 07:10:05;;;;;;;7.83;5.57;;;52.80;1.00;;;;;;4973666;28;20217;-85
2022/08/08 07:12:36;;;;;;;38.67;7.20;;;51.40;1.00;;;;;;4970897;28;20817;-84
2022/08/08 07:15:05;;;;;;;7.43;6.30;;;50.50;1.00;;;;;;4981469;28;20510;-84
2022/08/08 07:17:36;;;;;;;13.83;7.43;;;49.20;1.00;;;;;;4972626;28;20496;-84
2022/08/08 07:20:04;;;;;;;8.33;6.67;;;48.40;1.00;;;;;;5005147;28;20474;-84
2022/08/08 07:22:41;;;;;;;9.07;6.67;;;49.10;1.00;;;;;;4979938;28;20446;-84
2022/08/08 07:25:09;;;;;;;14.03;6.20;;;50.00;1.00;;;;;;4977087;28;20762;-85
2022/08/08 07:27:39;;;;;;;11.63;6.53;;;51.50;1.00;;;;;;4974895;28;20469;-86
2022/08/08 07:30:06;;;;;;;6.10;5.50;;;52.10;1.00;;;;;;4979805;28;20626;-85
2022/08/08 07:32:32;;;;;;;7.83;5.77;;;51.70;1.00;;;;;;4975391;28;20788;-85
2022/08/08 07:35:04;;;;;;;6.53;5.87;;;50.80;1.00;;;;;;4980756;28;20437;-84
2022/08/08 07:37:30;;;;;;;7.40;6.10;;;51.40;1.00;;;;;;4973919;28;20281;-85
2022/08/08 07:39:59;;;;;;;6.70;5.73;;;51.60;1.00;;;;;;4976761;28;20473;-84
2022/08/08 07:42:25;;;;;;;6.30;5.60;;;51.80;1.00;;;;;;4970446;28;20442;-85
2022/08/08 07:44:50;;;;;;;6.53;5.90;;;52.40;1.00;;;;;;4973033;28;20439;-84
2022/08/08 07:47:16;;;;;;;5.77;4.97;;;52.20;1.00;;;;;;4977379;28;20186;-85
2022/08/08 07:49:42;;;;;;;5.90;5.30;;;52.20;1.00;;;;;;4972528;28;20251;-86
2022/08/08 07:52:12;;;;;;;5.57;4.90;;;52.40;1.00;;;;;;4975411;28;20283;-85
2022/08/08 07:54:43;;;;;;;9.13;5.27;;;52.70;1.00;;;;;;4989955;28;20211;-85
2022/08/08 07:57:21;;;;;;;4.70;3.30;;;53.00;1.00;;;;;;4973356;28;20512;-85
2022/08/08 08:00:04;;;;;;;3.87;3.43;;;53.10;1.00;;;;;;4973548;28;20642;-83
2022/08/08 08:02:51;;;;;;;6.53;3.65;;;53.40;1.00;;;;;;4970427;28;20194;-86
2022/08/08 08:05:23;;;;;;;5.57;3.43;;;54.20;1.00;;;;;;4971687;28;20465;-85
2022/08/08 08:07:54;;;;;;;5.87;3.40;;;54.40;1.00;;;;;;4975165;28;20199;-86
2022/08/08 08:10:20;;;;;;;6.83;3.77;;;53.70;1.00;;;;;;4986338;28;20217;-86
2022/08/08 08:12:57;;;;;;;6.20;3.40;;;52.50;1.00;;;;;;4982539;28;20448;-86
2022/08/08 08:15:28;;;;;;;6.60;3.80;;;52.30;1.00;;;;;;4994528;28;20441;-86
2022/08/08 08:18:00;;;;;;;4.30;3.30;;;51.70;1.00;;;;;;4989597;28;20458;-86
2022/08/08 08:20:27;;;;;;;4.03;3.33;;;51.10;1.00;;;;;;4982547;28;20437;-86
2022/08/08 08:22:53;;;;;;;3.63;3.33;;;51.30;1.00;;;;;;4974044;28;20425;-86
2022/08/08 08:25:19;;;;;;;5.37;3.30;;;51.30;1.00;;;;;;4991943;28;20464;-86
2022/08/08 08:27:44;;;;;;;5.70;3.33;;;51.70;1.00;;;;;;4980121;28;20211;-87
2022/08/08 08:30:11;;;;;;;7.67;3.83;;;52.30;1.00;;;;;;4981787;28;20203;-86
2022/08/08 08:32:36;;;;;;;4.33;3.67;;;52.30;1.00;;;;;;4969509;28;20563;-86
2022/08/08 08:35:03;;;;;;;6.17;4.03;;;52.10;1.00;;;;;;4972114;28;20438;-86
2022/08/08 08:37:29;;;;;;;4.20;3.40;;;51.70;1.00;;;;;;4979330;28;20585;-86
2022/08/08 08:39:55;;;;;;;6.20;3.10;;;52.00;1.00;;;;;;4975503;28;20437;-86
2022/08/08 08:42:23;;;;;;;3.30;3.00;;;52.10;1.00;;;;;;4993920;28;20184;-86
2022/08/08 08:44:50;;;;;;;3.70;2.87;;;52.10;1.00;;;;;;4999357;28;20197;-85
2022/08/08 08:47:18;;;;;;;3.70;3.00;;;52.60;1.00;;;;;;4979926;28;20465;-86
2022/08/08 08:49:43;;;;;;;3.20;2.90;;;52.50;1.00;;;;;;4999382;28;20501;-86
2022/08/08 08:52:13;;;;;;;7.67;2.40;;;52.70;1.00;;;;;;4969517;28;20438;-86
2022/08/08 08:54:39;;;;;;;7.30;3.00;;;52.60;1.00;;;;;;4964448;28;20183;-86
2022/08/08 08:57:07;;;;;;;3.33;2.90;;;51.90;1.00;;;;;;4969401;28;20441;-86
2022/08/08 08:59:37;;;;;;;3.30;3.00;;;51.60;1.00;;;;;;4991237;28;20442;-86
2022/08/08 09:02:07;;;;;;;4.07;2.93;;;51.80;1.00;;;;;;4976731;28;20497;-86
2022/08/08 09:04:36;;;;;;;3.03;2.83;;;52.40;1.00;;;;;;4981487;28;20426;-86
2022/08/08 09:07:02;;;;;;;3.50;3.20;;;52.80;1.00;;;;;;4997485;28;20426;-86
2022/08/08 09:09:30;;;;;;;6.33;2.70;;;52.60;1.00;;;;;;4998482;28;20549;-84
2022/08/08 09:12:00;;;;;;;6.20;2.73;;;52.30;1.00;;;;;;4982555;28;20438;-84
2022/08/08 09:14:26;;;;;;;3.30;3.00;;;52.20;1.00;;;;;;4995766;28;20426;-84
2022/08/08 09:16:52;;;;;;;3.27;2.83;;;52.50;1.00;;;;;;4996263;28;20922;-83
2022/08/08 09:19:40;;;;;;;3.93;2.73;;;52.80;1.00;;;;;;4978172;28;20298;-85
2022/08/08 09:22:07;;;;;;;3.03;2.60;;;53.00;1.00;;;;;;4974734;28;20434;-85
2022/08/08 09:24:36;;;;;;;6.03;3.20;;;52.20;1.00;;;;;;4968720;28;20818;-84
2022/08/08 09:27:12;;;;;;;6.03;3.03;;;51.80;1.00;;;;;;4978037;28;20534;-85
2022/08/08 09:30:03;;;;;;;2.70;2.50;;;51.70;1.00;;;;;;4980343;28;20465;-85
2022/08/08 09:32:39;;;;;;;3.90;2.77;;;51.80;1.00;;;;;;4960475;28;20593;-85
2022/08/08 09:35:18;;;;;;;5.83;2.77;;;51.90;1.00;;;;;;4973654;28;20427;-84
2022/08/08 09:37:50;;;;;;;5.30;2.43;;;51.20;1.00;;;;;;4992905;28;20449;-86
2022/08/08 09:40:20;;;;;;;4.53;2.90;;;50.60;1.00;;;;;;4990170;28;20517;-84
2022/08/08 09:43:05;;;;;;;5.10;3.10;;;50.40;1.00;;;;;;4974976;28;20439;-85
2022/08/08 09:45:39;;;;;;;2.83;2.60;;;50.50;1.00;;;;;;4985545;28;20445;-85
2022/08/08 09:48:08;;;;;;;3.00;2.40;;;50.60;1.00;;;;;;4987519;28;20829;-85
2022/08/08 09:50:34;;;;;;;6.00;2.23;;;50.80;1.00;;;;;;4976444;28;20822;-85
2022/08/08 09:53:01;;;;;;;3.40;2.63;;;50.90;1.00;;;;;;4970615;28;20441;-85
2022/08/08 09:55:29;;;;;;;4.57;2.40;;;51.10;1.00;;;;;;4969829;28;20218;-85
2022/08/08 09:58:21;;;;;;;3.10;2.90;;;51.30;1.00;;;;;;4970924;28;20468;-85
2022/08/08 10:00:48;;;;;;;6.23;2.57;;;51.30;1.00;;;;;;4972185;28;20446;-84
2022/08/08 10:03:15;;;;;;;2.70;2.40;;;51.40;1.00;;;;;;4982540;28;20434;-84
2022/08/08 10:05:42;;;;;;;3.60;2.33;;;51.20;1.00;;;;;;4986398;28;20430;-84
2022/08/08 10:08:08;;;;;;;5.00;2.60;;;50.90;1.00;;;;;;4976334;28;20871;-85
2022/08/08 10:10:35;;;;;;;9.03;3.03;;;50.90;1.00;;;;;;4969756;28;20512;-84
2022/08/08 10:13:20;;;;;;;3.10;2.57;;;51.00;1.00;;;;;;4987891;28;20192;-85
2022/08/08 10:15:49;;;;;;;2.50;2.30;;;50.80;1.00;;;;;;4979535;28;20967;-85
2022/08/08 10:18:25;;;;;;;3.83;2.67;;;50.80;1.00;;;;;;4968723;28;20469;-84
2022/08/08 10:20:54;;;;;;;7.60;3.00;;;50.70;1.00;;;;;;4974816;28;20442;-85
2022/08/08 10:23:48;;;;;;;4.33;2.50;;;50.70;1.00;;;;;;4974577;28;20442;-85
2022/08/08 10:26:31;;;;;;;4.80;2.70;;;50.20;1.00;;;;;;4970353;28;20481;-84
2022/08/08 10:29:05;;;;;;;4.07;2.33;;;50.10;1.00;;;;;;4966365;28;20442;-85
2022/08/08 10:34:20;;;;;;;4.40;2.33;;;50.10;1.00;;;;;;4992098;28;20449;-84
2022/08/08 10:36:47;;;;;;;3.00;2.53;;;50.00;1.00;;;;;;4968968;28;20435;-85
2022/08/08 10:39:19;;;;;;;3.23;2.20;;;49.90;1.00;;;;;;4969535;28;20519;-84
2022/08/08 10:41:58;;;;;;;7.10;2.90;;;49.60;1.00;;;;;;4989670;28;20798;-85
2022/08/08 10:44:34;;;;;;;4.60;2.20;;;49.50;1.00;;;;;;4976037;28;20433;-84
2022/08/08 10:47:11;;;;;;;4.63;1.90;;;49.40;1.00;;;;;;4963401;28;20529;-85
2022/08/08 10:49:48;;;;;;;2.50;2.10;;;49.40;1.00;;;;;;4982680;23;20492;-86
2022/08/08 10:52:30;;;;;;;3.53;2.47;;;49.50;1.00;;;;;;4984675;28;20437;-86
2022/08/08 10:54:58;;;;;;;2.53;2.07;;;49.60;1.00;;;;;;4986979;28;20480;-85
2022/08/08 10:57:23;;;;;;;2.00;1.80;;;49.60;1.00;;;;;;4974051;28;20513;-85
2022/08/08 10:59:54;;;;;;;2.30;2.10;;;49.60;1.00;;;;;;4975758;28;21012;-85
2022/08/08 11:02:27;;;;;;;2.70;2.23;;;49.60;1.00;;;;;;4991415;28;20183;-84
2022/08/08 11:04:57;;;;;;;5.40;1.93;;;49.70;1.00;;;;;;4969505;28;20429;-85
2022/08/08 11:07:28;;;;;;;4.73;2.40;;;49.50;1.00;;;;;;4989759;28;20468;-85
2022/08/08 11:09:54;;;;;;;3.10;2.23;;;48.80;1.00;;;;;;4987027;28;20821;-85
2022/08/08 11:12:19;;;;;;;2.47;2.20;;;48.20;1.00;;;;;;4988907;28;21001;-86
2022/08/08 11:14:56;;;;;;;2.33;1.90;;;48.00;1.00;;;;;;4990783;28;20442;-85
2022/08/08 11:17:26;;;;;;;2.43;2.20;;;47.60;1.00;;;;;;4989823;28;20179;-85
2022/08/08 11:19:52;;;;;;;5.83;2.83;;;47.50;1.00;;;;;;4983283;28;20911;-86
2022/08/08 11:22:26;;;;;;;2.43;2.20;;;47.20;1.00;;;;;;4973416;28;20513;-85
2022/08/08 11:24:57;;;;;;;4.70;2.03;;;46.80;1.00;;;;;;4983453;28;20484;-85
2022/08/08 11:27:28;;;;;;;2.30;2.00;;;46.70;1.00;;;;;;4989449;28;20450;-85
2022/08/08 11:29:56;;;;;;;2.53;2.10;;;46.80;1.00;;;;;;4984835;28;21033;-85
2022/08/08 11:32:25;;;;;;;2.40;1.90;;;46.80;1.00;;;;;;4974621;28;20801;-85
2022/08/08 11:34:56;;;;;;;2.90;2.37;;;46.90;1.00;;;;;;4970830;28;20438;-85
2022/08/08 11:37:26;;;;;;;2.53;2.00;;;47.10;1.00;;;;;;4990071;28;20434;-87
2022/08/08 11:39:54;;;;;;;3.40;2.20;;;47.20;1.00;;;;;;4972527;28;20458;-85
2022/08/08 11:42:20;;;;;;;1.70;1.60;;;46.60;1.00;;;;;;4990213;28;20447;-86
2022/08/08 11:44:47;;;;;;;3.57;2.13;;;46.60;1.00;;;;;;4966905;28;20470;-85
2022/08/08 11:47:13;;;;;;;4.50;2.60;;;46.60;1.00;;;;;;4987492;28;20454;-86
2022/08/08 11:49:39;;;;;;;3.77;2.10;;;46.70;1.00;;;;;;4986383;28;20478;-85
2022/08/08 11:52:06;;;;;;;3.07;2.00;;;46.70;1.00;;;;;;4989976;28;20211;-85
2022/08/08 11:54:35;;;;;;;2.20;1.97;;;46.90;1.00;;;;;;4970846;28;20785;-85
2022/08/08 11:57:09;;;;;;;5.73;1.83;;;47.10;1.00;;;;;;4972779;28;20861;-85
2022/08/08 11:59:36;;;;;;;4.50;2.30;;;47.10;1.00;;;;;;4985773;28;20466;-86
2022/08/08 12:02:05;;;;;;;2.10;1.80;;;47.20;1.00;;;;;;4973738;28;20438;-85
2022/08/08 12:04:31;;;;;;;2.70;1.97;;;47.10;1.00;;;;;;4988763;28;20446;-86
2022/08/08 12:07:07;;;;;;;2.30;1.90;;;47.20;1.00;;;;;;4987068;28;20433;-85
2022/08/08 12:09:33;;;;;;;6.80;2.03;;;47.30;1.00;;;;;;4983250;28;20210;-85
2022/08/08 12:11:59;;;;;;;4.20;3.00;;;47.40;1.00;;;;;;4993406;28;20472;-85
2022/08/08 12:14:25;;;;;;;2.83;2.20;;;47.20;1.00;;;;;;4986502;28;20462;-85
2022/08/08 12:16:52;;;;;;;5.10;2.60;;;46.90;1.00;;;;;;4990234;28;20187;-86
2022/08/08 12:19:22;;;;;;;3.63;2.20;;;46.50;1.00;;;;;;4970145;28;20474;-87
2022/08/08 12:21:48;;;;;;;5.67;2.57;;;46.40;1.00;;;;;;4972352;28;20453;-87
2022/08/08 12:24:15;;;;;;;3.00;2.00;;;45.70;1.00;;;;;;4983861;28;20450;-87
2022/08/08 12:26:43;;;;;;;2.73;2.17;;;45.10;1.00;;;;;;4986899;28;20247;-87
2022/08/08 12:29:33;;;;;;;2.40;2.10;;;44.70;1.00;;;;;;4990308;28;20479;-86
2022/08/08 12:32:01;;;;;;;6.13;2.10;;;44.50;1.00;;;;;;4986833;28;20509;-87
2022/08/08 12:34:43;;;;;;;2.47;2.23;;;44.50;1.00;;;;;;4988626;28;20467;-87
2022/08/08 12:37:17;;;;;;;1.97;1.80;;;44.60;1.00;;;;;;4981485;28;20545;-87
2022/08/08 12:39:45;;;;;;;3.00;1.90;;;44.20;1.00;;;;;;4973867;28;20502;-87
2022/08/08 12:42:11;;;;;;;5.50;2.03;;;44.10;1.00;;;;;;4989322;28;20442;-89
2022/08/08 12:44:39;;;;;;;4.07;1.90;;;43.90;1.00;;;;;;4968052;28;20441;-89
2022/08/08 12:50:05;;;;;;;3.27;2.00;;;43.90;1.00;;;;;;4992723;28;20474;-87
2022/08/08 12:52:38;;;;;;;4.20;2.40;;;43.80;1.00;;;;;;4992303;28;20434;-86
2022/08/08 12:55:09;;;;;;;2.73;2.23;;;43.50;1.00;;;;;;4981767;28;20516;-87
2022/08/08 12:57:38;;;;;;;3.40;2.90;;;42.90;1.00;;;;;;4996443;28;20430;-87
2022/08/08 13:00:06;;;;;;;5.80;1.93;;;42.50;1.00;;;;;;4996990;28;20846;-88
2022/08/08 13:02:37;;;;;;;4.07;2.27;;;42.50;1.00;;;;;;4996514;28;20418;-88
2022/08/08 13:05:05;;;;;;;4.80;1.83;;;42.40;1.00;;;;;;4996433;28;20437;-87
2022/08/08 13:07:39;;;;;;;4.40;2.00;;;42.30;1.00;;;;;;4996121;28;20423;-88
2022/08/08 13:10:09;;;;;;;2.53;2.10;;;42.10;1.00;;;;;;4997012;28;20458;-86
2022/08/08 13:12:40;;;;;;;3.77;2.33;;;42.10;1.00;;;;;;4974484;28;20458;-88
2022/08/08 13:15:08;;;;;;;3.33;1.80;;;42.10;1.00;;;;;;4976533;28;20440;-88
2022/08/08 13:17:34;;;;;;;3.10;2.13;;;41.90;1.00;;;;;;4975684;28;20446;-88
2022/08/08 13:20:01;;;;;;;2.90;1.97;;;41.70;1.00;;;;;;4995624;28;20545;-87
2022/08/08 13:22:27;;;;;;;3.03;2.13;;;41.50;1.00;;;;;;4976433;28;20453;-84
2022/08/08 13:24:53;;;;;;;4.20;2.60;;;41.10;1.00;;;;;;4995615;28;21401;-85
2022/08/08 13:27:21;;;;;;;2.93;2.40;;;40.60;1.00;;;;;;4978683;28;20244;-85
2022/08/08 13:29:58;;;;;;;3.30;2.17;;;40.20;1.00;;;;;;4994562;28;20845;-86
2022/08/08 13:32:34;;;;;;;2.97;2.30;;;39.80;1.00;;;;;;4995002;28;20449;-86
2022/08/08 13:35:01;;;;;;;2.80;1.73;;;39.60;1.00;;;;;;4992904;28;20434;-85
2022/08/08 13:37:28;;;;;;;3.13;1.97;;;39.50;1.00;;;;;;4997035;28;20442;-86